Tampa, Florida
Traffic Map
Current Weather Conditions
Tampa, Florida
Broken Clouds
Broken Clouds
89°
Feels Like: 104°
Wind Chill: 89° Ceiling: 3600
Heat Index: 104° Visibility: 10mi
Dew Point: 79° Wind: 10mph
Humidity: 72% Direction: 250° (WSW)
Pressure: 30.1in Gusts: 0mph
Raw Report DataKTPA 261653Z 25009KT 10SM BKN036TCU BKN300 32/26 A3010 RMK AO2 SLP191 CB DSNT NE AND S TCU ALQDS T03170261
Traffic Incident Summary
Active as of:
Severity:
Category:
InformationThere was an issue retrieving the traffic information for this location. Please try a different location or try again shortly.
Advertisements
Track Severe Weather on mobile